KP28

Medicine Lodge Airport

Medicine Lodge, Kansas, USA
METAR KP28 170256Z AUTO 00000KT 08/05 A3030 RMK AO1 SLP267 T00830050 51014
Observed Flight Rules
Oct-17 @ 02:56 UTC (52 minutes ago)
Temperatures Readings
Current 8°C / 46°F
Dewpoint 5°C / 41°F
Humidity 82%
Altimeter 30.3" Hg
Pressure 1026.7 hPa
Elevation 469
METAR KP28 170256Z AUTO 00000KT 08/05 A3030 RMK AO1 SLP267 T00830050 51014
Observed Flight Rules
Oct-17 @ 02:56 UTC
(52 minutes ago)
Temperature Dewpoint
8°C / 46°F 5°C / 41°F
Humidity Altimeter Pressure
82% 30.3" Hg 1026.7 hPa